Jimma, Ethiopia
Current Conditions -  °F | °C
As of 6:00 PM on Monday 24 Nov 2014 (Local Time) from HAAB Reporting Station
Scattered Clouds Scattered Clouds  
Wind Chill: 70°   Ceiling: Unl
Heat Index: 70°   Visibility: 6mi
Dew Point: 50°   Wind: 7mph
Humidity: 49%   Direction: 130°SE
Pressure: 30.27"   Gusts: NA
Location:  7.68°N, 36.83°E
Report Text: HAAB 241500Z 13006KT 9999 SCT025 21/10 Q1025
Loading
Personal Weather Stations






























Interactive Weather Map New forecast layout! Learn more

10-Day Weather Forecast

Advertisements
Track Severe Weather on mobile